createdAt,value
2022-11-20T00:01:25.663Z,54.99
2022-11-20T00:03:55.253Z,54.87
2022-11-20T00:06:23.367Z,54.51
2022-11-20T00:08:51.074Z,54.74
2022-11-20T00:11:21.381Z,54.35
2022-11-20T00:13:50.871Z,54.69
2022-11-20T00:16:21.002Z,55.15
2022-11-20T00:18:48.930Z,55.14
2022-11-20T00:21:24.059Z,54.89
2022-11-20T00:23:55.184Z,55.28
2022-11-20T00:26:24.269Z,55.43
2022-11-20T00:28:56.421Z,55.77
2022-11-20T00:31:24.198Z,56.04
2022-11-20T00:33:52.281Z,55.94
2022-11-20T00:36:21.704Z,55.72
2022-11-20T00:38:53.151Z,55.79
2022-11-20T00:41:20.873Z,55.78
2022-11-20T00:43:48.253Z,56.16
2022-11-20T00:46:21.335Z,55.40
2022-11-20T00:48:49.025Z,54.43
2022-11-20T00:51:19.335Z,53.91
2022-11-20T00:53:46.952Z,53.47
2022-11-20T00:56:17.310Z,53.18
2022-11-20T00:58:46.546Z,53.29
2022-11-20T01:01:16.662Z,52.60
2022-11-20T01:03:46.661Z,52.77
2022-11-20T01:06:20.280Z,52.78
2022-11-20T01:08:48.854Z,52.38
2022-11-20T01:11:18.995Z,52.70
2022-11-20T01:13:47.414Z,53.29
2022-11-20T01:16:21.051Z,52.62
2022-11-20T01:18:54.387Z,52.65
2022-11-20T01:21:26.078Z,52.39
2022-11-20T01:23:54.035Z,53.20
2022-11-20T01:26:24.590Z,54.04
2022-11-20T01:28:52.395Z,54.57
2022-11-20T01:31:24.677Z,54.30
2022-11-20T01:33:53.272Z,54.75
2022-11-20T01:36:22.158Z,55.54
2022-11-20T01:38:52.790Z,56.13
2022-11-20T01:41:39.222Z,55.75
2022-11-20T01:44:06.528Z,55.58
2022-11-20T01:46:37.596Z,55.37
2022-11-20T01:49:10.850Z,55.44
2022-11-20T01:52:16.440Z,55.11
2022-11-20T01:54:50.831Z,55.13
2022-11-20T01:57:20.597Z,55.18
2022-11-20T01:59:56.563Z,54.89
2022-11-20T02:02:24.154Z,55.02
2022-11-20T02:04:52.817Z,54.99
2022-11-20T02:07:21.112Z,55.26
2022-11-20T02:09:48.486Z,54.52
2022-11-20T02:12:34.754Z,54.32
2022-11-20T02:15:02.301Z,54.58
2022-11-20T02:17:30.302Z,54.66
2022-11-20T02:19:57.648Z,54.71
2022-11-20T02:22:33.456Z,54.94
2022-11-20T02:25:02.031Z,54.49
2022-11-20T02:27:29.765Z,55.11
2022-11-20T02:30:14.990Z,55.98
2022-11-20T02:32:42.636Z,56.03
2022-11-20T02:35:30.091Z,56.73
2022-11-20T02:37:59.322Z,56.19
2022-11-20T02:40:26.854Z,55.40
2022-11-20T02:42:57.660Z,55.20
2022-11-20T02:45:26.045Z,55.35
2022-11-20T02:47:53.777Z,55.16
2022-11-20T02:50:21.317Z,55.02
2022-11-20T02:52:48.914Z,55.29
2022-11-20T02:55:16.307Z,55.63
2022-11-20T02:57:43.710Z,55.82
2022-11-20T03:00:12.004Z,56.13
2022-11-20T03:02:39.370Z,56.77
2022-11-20T03:05:06.927Z,56.90
2022-11-20T03:07:34.791Z,56.74
2022-11-20T03:10:02.134Z,56.93
2022-11-20T03:12:29.428Z,56.79
2022-11-20T03:14:57.044Z,56.74
2022-11-20T03:17:24.414Z,56.71
2022-11-20T03:19:51.773Z,56.65
2022-11-20T03:22:19.391Z,56.24
2022-11-20T03:24:47.013Z,56.30
2022-11-20T03:27:14.413Z,56.02
2022-11-20T03:29:42.051Z,55.74
2022-11-20T03:32:09.382Z,56.21
2022-11-20T03:34:36.711Z,56.22
2022-11-20T03:37:04.387Z,55.81
2022-11-20T03:39:31.814Z,55.77
2022-11-20T03:41:59.422Z,55.86
2022-11-20T03:44:26.976Z,55.56
2022-11-20T03:46:54.321Z,56.21
2022-11-20T03:49:22.155Z,55.88
2022-11-20T03:51:50.091Z,56.11
2022-11-20T03:54:17.458Z,56.44
2022-11-20T03:56:44.839Z,56.69
2022-11-20T03:59:12.480Z,56.79
2022-11-20T04:01:40.307Z,56.74
2022-11-20T04:04:08.986Z,57.00
2022-11-20T04:06:38.006Z,57.35
2022-11-20T04:09:05.851Z,57.45
2022-11-20T04:11:35.632Z,57.58
2022-11-20T04:14:06.815Z,57.39
2022-11-20T04:16:36.518Z,57.45
2022-11-20T04:19:06.305Z,57.07
2022-11-20T04:21:34.222Z,57.13
2022-11-20T04:24:01.908Z,57.54
2022-11-20T04:26:30.041Z,57.00
2022-11-20T04:28:58.203Z,56.54
2022-11-20T04:31:27.612Z,56.84
2022-11-20T04:33:55.166Z,57.14
2022-11-20T04:36:25.307Z,57.12
2022-11-20T04:39:04.538Z,57.29
2022-11-20T04:41:34.510Z,56.82
2022-11-20T04:44:05.839Z,56.30
2022-11-20T04:46:41.530Z,57.11
2022-11-20T04:49:09.639Z,56.83
2022-11-20T04:51:37.345Z,57.09
2022-11-20T04:54:04.818Z,57.31
2022-11-20T04:56:32.378Z,57.38
2022-11-20T04:59:03.677Z,57.46
2022-11-20T05:01:31.399Z,57.91
2022-11-20T05:03:59.234Z,57.66
2022-11-20T05:06:26.835Z,58.09
2022-11-20T05:08:54.129Z,57.94
2022-11-20T05:11:22.058Z,57.97
2022-11-20T05:13:50.576Z,57.87
2022-11-20T05:16:23.653Z,57.87
2022-11-20T05:18:52.914Z,57.87
2022-11-20T05:21:20.673Z,57.91
2022-11-20T05:23:48.046Z,57.96
2022-11-20T05:26:22.708Z,57.93
2022-11-20T05:28:51.000Z,57.66
2022-11-20T05:31:26.621Z,57.40
2022-11-20T05:33:55.030Z,57.43
2022-11-20T05:36:22.579Z,57.45
2022-11-20T05:38:51.071Z,57.11
2022-11-20T05:41:20.648Z,57.26
2022-11-20T05:43:49.507Z,57.39
2022-11-20T05:46:22.293Z,57.48
2022-11-20T05:48:52.610Z,57.62
2022-11-20T05:51:20.974Z,57.33
2022-11-20T05:53:49.013Z,57.18
2022-11-20T05:56:18.783Z,57.33
2022-11-20T05:58:46.864Z,57.52
2022-11-20T06:01:15.261Z,57.46
2022-11-20T06:03:44.667Z,56.99
2022-11-20T06:06:12.150Z,57.76
2022-11-20T06:08:39.475Z,57.71
2022-11-20T06:11:08.610Z,57.40
2022-11-20T06:13:41.606Z,57.46
2022-11-20T06:16:11.054Z,57.52
2022-11-20T06:18:38.642Z,57.54
2022-11-20T06:21:13.089Z,58.17
2022-11-20T06:23:41.224Z,57.78
2022-11-20T06:26:10.778Z,58.61
2022-11-20T06:28:38.255Z,58.67
2022-11-20T06:31:06.989Z,58.90
2022-11-20T06:33:34.804Z,59.34
2022-11-20T06:36:07.260Z,58.50
2022-11-20T06:38:39.466Z,58.78
2022-11-20T06:41:07.700Z,58.46
2022-11-20T06:43:35.047Z,58.42
2022-11-20T06:46:03.085Z,58.60
2022-11-20T06:48:30.559Z,58.34
2022-11-20T06:50:58.472Z,58.52
2022-11-20T06:53:26.320Z,57.78
2022-11-20T06:55:57.108Z,57.59
2022-11-20T06:58:26.951Z,57.54
2022-11-20T07:00:54.967Z,57.85
2022-11-20T07:03:22.344Z,58.07
2022-11-20T07:05:49.834Z,58.04
2022-11-20T07:08:17.539Z,57.92
2022-11-20T07:10:44.873Z,57.77
2022-11-20T07:13:12.239Z,58.41
2022-11-20T07:15:39.880Z,58.98
2022-11-20T07:18:07.457Z,59.06
2022-11-20T07:20:35.006Z,59.13
2022-11-20T07:23:02.654Z,59.32
2022-11-20T07:25:30.028Z,59.52
2022-11-20T07:28:00.734Z,59.48
2022-11-20T07:30:28.890Z,60.14
2022-11-20T07:32:57.147Z,59.60
2022-11-20T07:35:25.446Z,61.21
2022-11-20T07:37:53.053Z,61.76
2022-11-20T07:40:20.899Z,61.84
2022-11-20T07:42:52.821Z,62.44
2022-11-20T07:45:21.378Z,63.05
2022-11-20T07:47:49.037Z,62.21
2022-11-20T07:50:16.486Z,62.36
2022-11-20T07:52:44.049Z,61.71
2022-11-20T07:55:11.774Z,62.11
2022-11-20T07:57:39.523Z,61.52
2022-11-20T08:00:12.010Z,61.44
2022-11-20T08:02:40.480Z,61.48
2022-11-20T08:05:09.550Z,60.84
2022-11-20T08:07:41.020Z,60.41
2022-11-20T08:10:10.755Z,59.99
2022-11-20T08:13:03.977Z,59.95
2022-11-20T08:15:31.610Z,60.31
2022-11-20T08:18:32.929Z,60.67
2022-11-20T08:21:04.764Z,60.40
2022-11-20T08:23:32.361Z,60.26
2022-11-20T08:25:59.727Z,60.93
2022-11-20T08:28:27.343Z,62.12
2022-11-20T08:30:59.572Z,61.95
2022-11-20T08:33:27.065Z,61.76
2022-11-20T08:35:54.373Z,62.27
2022-11-20T08:38:21.722Z,61.94
2022-11-20T08:41:09.287Z,60.94
2022-11-20T08:43:36.677Z,61.91
2022-11-20T08:46:04.274Z,61.52
2022-11-20T08:48:31.567Z,61.76
2022-11-20T08:51:00.375Z,60.80
2022-11-20T08:53:28.605Z,62.14
2022-11-20T08:55:57.835Z,63.00
2022-11-20T08:58:26.194Z,62.96
2022-11-20T09:00:54.117Z,61.73
2022-11-20T09:03:21.567Z,61.32
2022-11-20T09:05:48.931Z,61.21
2022-11-20T09:08:16.459Z,60.82
2022-11-20T09:10:43.802Z,60.28
2022-11-20T09:13:11.085Z,58.36
2022-11-20T09:15:38.690Z,58.10
2022-11-20T09:18:05.984Z,57.32
2022-11-20T09:20:33.451Z,57.80
2022-11-20T09:23:01.055Z,57.29
2022-11-20T09:25:28.417Z,57.21
2022-11-20T09:27:57.025Z,56.48
2022-11-20T09:30:25.249Z,56.79
2022-11-20T09:32:52.598Z,56.65
2022-11-20T09:35:19.980Z,55.27
2022-11-20T09:37:47.657Z,55.70
2022-11-20T09:40:33.926Z,55.59
2022-11-20T09:43:08.248Z,56.23
2022-11-20T09:45:53.454Z,56.37
2022-11-20T09:48:36.094Z,57.06
2022-11-20T09:51:10.197Z,58.54
2022-11-20T09:53:52.410Z,58.32
2022-11-20T09:56:22.798Z,58.83
2022-11-20T09:58:52.994Z,58.53
2022-11-20T10:01:22.627Z,59.55
2022-11-20T10:04:19.354Z,59.29
2022-11-20T10:07:32.697Z,60.37
2022-11-20T10:10:01.325Z,60.63
2022-11-20T10:12:28.537Z,61.14
2022-11-20T10:15:17.119Z,62.22
2022-11-20T10:18:06.138Z,61.62
2022-11-20T10:20:41.982Z,61.81
2022-11-20T10:23:25.837Z,62.23
2022-11-20T10:26:15.038Z,61.75
2022-11-20T10:29:16.416Z,60.89
2022-11-20T10:31:47.390Z,60.39
2022-11-20T10:34:23.130Z,59.62
2022-11-20T10:36:56.003Z,59.76
2022-11-20T10:39:44.705Z,59.47
2022-11-20T10:42:20.966Z,59.10
2022-11-20T10:45:05.946Z,58.60
2022-11-20T10:47:34.394Z,58.76
2022-11-20T10:50:05.927Z,58.64
2022-11-20T10:53:01.328Z,59.24
2022-11-20T10:55:34.697Z,58.56
2022-11-20T10:58:12.417Z,58.70
2022-11-20T11:00:40.103Z,59.04
2022-11-20T11:03:29.706Z,58.66
2022-11-20T11:06:09.209Z,58.87
2022-11-20T11:08:39.540Z,58.52
2022-11-20T11:11:24.946Z,58.21
2022-11-20T11:13:52.696Z,57.90
2022-11-20T11:16:25.645Z,58.71
2022-11-20T11:19:03.873Z,57.48
2022-11-20T11:21:31.505Z,57.35
2022-11-20T11:24:26.798Z,57.25
2022-11-20T11:27:05.583Z,58.26
2022-11-20T11:29:32.873Z,58.32
2022-11-20T11:32:08.099Z,57.31
2022-11-20T11:34:35.741Z,57.61
2022-11-20T11:37:04.467Z,56.97
2022-11-20T11:39:34.803Z,58.13
2022-11-20T11:42:02.254Z,57.39
2022-11-20T11:44:50.932Z,56.99
2022-11-20T11:47:32.223Z,57.99
2022-11-20T11:50:17.919Z,57.87
2022-11-20T11:52:59.654Z,58.50
2022-11-20T11:55:44.322Z,57.91
2022-11-20T11:58:42.986Z,58.13
2022-11-20T12:01:34.288Z,58.03
2022-11-20T12:04:20.674Z,58.58
2022-11-20T12:06:53.559Z,59.39
2022-11-20T12:09:25.767Z,59.27
2022-11-20T12:12:11.035Z,58.28
2022-11-20T12:14:40.387Z,57.79
2022-11-20T12:17:10.986Z,57.52
2022-11-20T12:19:38.795Z,57.23
2022-11-20T12:22:30.016Z,57.28
2022-11-20T12:25:05.739Z,59.57
2022-11-20T12:28:10.726Z,59.07
2022-11-20T12:30:46.914Z,59.76
2022-11-20T12:33:32.322Z,59.96
2022-11-20T12:36:06.693Z,59.73
2022-11-20T12:38:52.813Z,59.11
2022-11-20T12:41:58.020Z,58.51
2022-11-20T12:45:11.835Z,59.57
2022-11-20T12:47:51.230Z,59.14
2022-11-20T12:50:53.326Z,58.37
2022-11-20T12:53:49.243Z,58.41
2022-11-20T12:56:56.366Z,58.07
2022-11-20T12:59:36.094Z,57.86
2022-11-20T13:02:26.891Z,56.92
2022-11-20T13:05:13.669Z,55.79
2022-11-20T13:07:41.873Z,56.74
2022-11-20T13:10:28.070Z,56.37
2022-11-20T13:12:59.484Z,55.74
2022-11-20T13:15:57.412Z,56.27
2022-11-20T13:18:24.786Z,57.07
2022-11-20T13:20:52.732Z,55.85
2022-11-20T13:23:28.375Z,56.74
2022-11-20T13:26:07.509Z,56.58
2022-11-20T13:28:35.580Z,55.61
2022-11-20T13:31:03.214Z,56.06
2022-11-20T13:33:37.434Z,56.28
2022-11-20T13:36:07.473Z,55.57
2022-11-20T13:38:45.923Z,55.79
2022-11-20T13:41:36.101Z,57.04
2022-11-20T13:44:43.588Z,57.04
2022-11-20T13:47:30.028Z,56.65
2022-11-20T13:49:59.647Z,57.73
2022-11-20T13:53:01.448Z,57.33
2022-11-20T13:55:39.683Z,57.08
2022-11-20T13:58:13.641Z,57.42
2022-11-20T14:00:55.290Z,58.36
2022-11-20T14:03:44.135Z,58.43
2022-11-20T14:06:15.839Z,57.69
2022-11-20T14:08:47.463Z,58.16
2022-11-20T14:11:17.957Z,58.15
2022-11-20T14:13:57.924Z,58.36
2022-11-20T14:16:26.865Z,58.50
2022-11-20T14:18:55.655Z,57.87
2022-11-20T14:21:28.681Z,57.87
2022-11-20T14:24:23.560Z,59.23
2022-11-20T14:26:52.110Z,59.87
2022-11-20T14:29:22.445Z,59.47
2022-11-20T14:31:54.274Z,59.31
2022-11-20T14:34:34.016Z,59.50
2022-11-20T14:37:03.453Z,59.41
2022-11-20T14:39:35.802Z,59.14
2022-11-20T14:42:04.466Z,59.28
2022-11-20T14:44:34.167Z,59.58
2022-11-20T14:47:03.587Z,59.41
2022-11-20T14:49:32.076Z,59.52
2022-11-20T14:52:01.297Z,59.34
2022-11-20T14:54:30.089Z,58.86
2022-11-20T14:57:02.819Z,58.79
2022-11-20T14:59:32.745Z,58.59
2022-11-20T15:02:03.430Z,58.04
2022-11-20T15:04:31.079Z,58.51
2022-11-20T15:07:00.377Z,58.35
2022-11-20T15:09:27.897Z,58.63
2022-11-20T15:11:58.066Z,58.36
2022-11-20T15:14:27.060Z,58.35
2022-11-20T15:16:55.178Z,58.48
2022-11-20T15:19:25.019Z,58.13
2022-11-20T15:21:52.565Z,58.04
2022-11-20T15:24:20.799Z,58.18
2022-11-20T15:26:49.412Z,58.66
2022-11-20T15:29:21.809Z,58.54
2022-11-20T15:31:49.408Z,58.19
2022-11-20T15:34:16.847Z,58.50
2022-11-20T15:36:44.890Z,58.01
2022-11-20T15:39:12.544Z,58.54
2022-11-20T15:41:40.323Z,58.66
2022-11-20T15:44:07.679Z,58.35
2022-11-20T15:46:40.814Z,58.99
2022-11-20T15:49:12.351Z,58.60
2022-11-20T15:51:43.508Z,58.53
2022-11-20T15:54:11.026Z,58.29
2022-11-20T15:56:38.590Z,58.43
2022-11-20T15:59:06.159Z,58.17
2022-11-20T16:01:33.651Z,57.96
2022-11-20T16:04:01.831Z,58.37
2022-11-20T16:06:29.146Z,58.38
2022-11-20T16:08:56.686Z,58.58
2022-11-20T16:11:24.312Z,58.61
2022-11-20T16:14:09.926Z,58.34
2022-11-20T16:16:40.170Z,58.50
2022-11-20T16:19:10.061Z,58.57
2022-11-20T16:21:38.488Z,58.92
2022-11-20T16:24:07.556Z,58.87
2022-11-20T16:26:36.383Z,59.12
2022-11-20T16:29:05.082Z,59.55
2022-11-20T16:31:33.322Z,60.43
2022-11-20T16:34:07.148Z,61.06
2022-11-20T16:36:43.083Z,60.47
2022-11-20T16:39:10.844Z,60.88
2022-11-20T16:41:38.504Z,60.73
2022-11-20T16:44:10.832Z,61.09
2022-11-20T16:46:38.323Z,61.53
2022-11-20T16:49:13.356Z,60.66
2022-11-20T16:51:40.745Z,60.28
2022-11-20T16:54:09.330Z,60.34
2022-11-20T16:56:37.700Z,60.21
2022-11-20T16:59:05.517Z,60.90
2022-11-20T17:01:34.259Z,60.44
2022-11-20T17:04:03.473Z,60.25
2022-11-20T17:06:41.763Z,60.02
2022-11-20T17:09:09.618Z,60.11
2022-11-20T17:11:37.370Z,59.67
2022-11-20T17:14:07.445Z,59.40
2022-11-20T17:16:36.410Z,59.44
2022-11-20T17:19:05.252Z,59.48
2022-11-20T17:21:33.379Z,59.20
2022-11-20T17:24:03.408Z,59.02
2022-11-20T17:26:31.221Z,59.13
2022-11-20T17:29:01.195Z,59.17
2022-11-20T17:31:30.207Z,59.04
2022-11-20T17:33:59.685Z,58.61
2022-11-20T17:36:28.825Z,58.79
2022-11-20T17:38:56.421Z,58.51
2022-11-20T17:41:25.413Z,58.70
2022-11-20T17:43:57.990Z,58.47
2022-11-20T17:46:27.878Z,58.71
2022-11-20T17:48:55.716Z,59.03
2022-11-20T17:51:26.251Z,59.10
2022-11-20T17:53:56.580Z,59.31
2022-11-20T17:56:42.751Z,59.32
2022-11-20T17:59:12.044Z,63.12
2022-11-20T18:01:40.543Z,60.68
2022-11-20T18:04:08.514Z,59.81
2022-11-20T18:06:36.461Z,59.78
2022-11-20T18:09:05.228Z,59.46
2022-11-20T18:11:37.408Z,59.47
2022-11-20T18:14:25.401Z,59.76
2022-11-20T18:16:55.093Z,60.43
2022-11-20T18:19:28.730Z,61.19
2022-11-20T18:22:01.693Z,61.21
2022-11-20T18:24:31.826Z,60.97
2022-11-20T18:26:59.467Z,61.02
2022-11-20T18:29:27.512Z,61.46
2022-11-20T18:31:54.914Z,61.50
2022-11-20T18:34:22.686Z,62.11
2022-11-20T18:36:50.784Z,61.91
2022-11-20T18:39:18.286Z,61.83
2022-11-20T18:42:04.086Z,61.29
2022-11-20T18:44:51.338Z,60.75
2022-11-20T18:47:30.803Z,60.71
2022-11-20T18:50:00.889Z,61.10
2022-11-20T18:52:34.068Z,60.23
2022-11-20T18:55:02.602Z,60.02
2022-11-20T18:57:31.621Z,59.99
2022-11-20T19:00:08.060Z,59.84
2022-11-20T19:02:41.696Z,59.75
2022-11-20T19:05:11.185Z,59.43
2022-11-20T19:07:38.798Z,59.51
2022-11-20T19:10:06.706Z,59.40
2022-11-20T19:12:35.270Z,59.37
2022-11-20T19:15:03.271Z,59.35
2022-11-20T19:17:33.103Z,59.56
2022-11-20T19:20:00.915Z,59.64
2022-11-20T19:22:28.590Z,60.02
2022-11-20T19:24:55.971Z,60.34
2022-11-20T19:27:23.263Z,60.00
2022-11-20T19:29:50.925Z,59.80
2022-11-20T19:32:18.906Z,59.98
2022-11-20T19:34:46.219Z,60.27
2022-11-20T19:37:13.868Z,60.27
2022-11-20T19:39:41.581Z,59.82
2022-11-20T19:42:08.943Z,59.86
2022-11-20T19:44:36.576Z,59.79
2022-11-20T19:47:09.016Z,60.12
2022-11-20T19:49:41.728Z,60.02
2022-11-20T19:52:09.336Z,59.78
2022-11-20T19:54:36.807Z,59.98
2022-11-20T19:57:04.481Z,60.11
2022-11-20T19:59:31.834Z,60.61
2022-11-20T20:01:59.268Z,61.20
2022-11-20T20:04:27.262Z,61.04
2022-11-20T20:06:54.565Z,60.83
2022-11-20T20:09:23.672Z,60.45
2022-11-20T20:11:51.598Z,60.68
2022-11-20T20:14:19.174Z,60.14
2022-11-20T20:16:46.622Z,60.28
2022-11-20T20:19:15.237Z,60.07
2022-11-20T20:21:42.655Z,60.58
2022-11-20T20:24:10.978Z,60.84
2022-11-20T20:26:38.596Z,61.12
2022-11-20T20:29:05.995Z,61.22
2022-11-20T20:31:33.902Z,61.46
2022-11-20T20:34:03.341Z,61.45
2022-11-20T20:36:31.029Z,61.73
2022-11-20T20:39:04.850Z,61.39
2022-11-20T20:41:32.683Z,61.96
2022-11-20T20:44:19.885Z,62.04
2022-11-20T20:46:47.496Z,61.73
2022-11-20T20:49:14.962Z,61.63
2022-11-20T20:51:42.326Z,61.37
2022-11-20T20:54:09.919Z,61.15
2022-11-20T20:56:38.111Z,60.90
2022-11-20T20:59:06.373Z,61.00
2022-11-20T21:01:34.117Z,60.86
2022-11-20T21:04:01.474Z,60.66
2022-11-20T21:06:29.114Z,60.04
2022-11-20T21:08:58.426Z,60.11
2022-11-20T21:11:25.784Z,59.99
2022-11-20T21:13:53.569Z,60.15
2022-11-20T21:16:22.489Z,60.28
2022-11-20T21:18:50.095Z,59.99
2022-11-20T21:21:36.528Z,60.56
2022-11-20T21:24:04.407Z,60.64
2022-11-20T21:26:31.770Z,60.70
2022-11-20T21:28:59.148Z,60.92
2022-11-20T21:31:27.257Z,61.21
2022-11-20T21:33:55.966Z,60.94
2022-11-20T21:36:28.280Z,60.48
2022-11-20T21:38:56.859Z,60.54
2022-11-20T21:41:26.270Z,60.37
2022-11-20T21:44:29.154Z,60.06
2022-11-20T21:46:44.129Z,60.59
2022-11-20T21:49:12.146Z,60.14
2022-11-20T21:51:39.483Z,60.36
2022-11-20T21:54:07.086Z,60.17
2022-11-20T21:56:34.439Z,60.00
2022-11-20T21:59:01.798Z,60.41
2022-11-20T22:01:30.268Z,60.09
2022-11-20T22:04:00.270Z,60.51
2022-11-20T22:06:32.540Z,60.05
2022-11-20T22:09:01.246Z,60.19
2022-11-20T22:11:28.541Z,60.08
2022-11-20T22:14:14.584Z,60.29
2022-11-20T22:16:42.153Z,60.43
2022-11-20T22:19:09.738Z,60.12
2022-11-20T22:21:38.849Z,59.93
2022-11-20T22:24:06.480Z,60.20
2022-11-20T22:26:39.923Z,60.15
2022-11-20T22:29:18.295Z,60.14
2022-11-20T22:31:45.649Z,60.14
2022-11-20T22:34:14.194Z,60.61
2022-11-20T22:36:41.594Z,60.67
2022-11-20T22:39:09.000Z,60.67
2022-11-20T22:41:36.616Z,60.76
2022-11-20T22:44:05.989Z,60.74
2022-11-20T22:46:35.765Z,60.78
2022-11-20T22:49:10.641Z,60.45
2022-11-20T22:51:39.933Z,60.93
2022-11-20T22:54:09.344Z,61.31
2022-11-20T22:56:36.720Z,61.25
2022-11-20T22:59:04.178Z,61.15
2022-11-20T23:01:34.498Z,61.51
2022-11-20T23:04:04.206Z,61.03
2022-11-20T23:06:34.335Z,60.54
2022-11-20T23:09:05.753Z,60.31
2022-11-20T23:11:33.641Z,60.90
2022-11-20T23:14:26.386Z,60.66
2022-11-20T23:16:55.239Z,60.60
2022-11-20T23:19:22.667Z,60.55
2022-11-20T23:21:50.218Z,60.46
2022-11-20T23:24:17.860Z,60.65
2022-11-20T23:26:47.106Z,60.44
2022-11-20T23:29:14.534Z,60.35
2022-11-20T23:31:42.125Z,60.53
2022-11-20T23:34:09.634Z,60.11
2022-11-20T23:36:36.919Z,60.14
2022-11-20T23:39:04.523Z,60.46
2022-11-20T23:41:31.815Z,60.23
2022-11-20T23:43:59.140Z,60.28
2022-11-20T23:46:26.735Z,60.85
2022-11-20T23:48:54.252Z,60.42
2022-11-20T23:51:21.540Z,60.23
2022-11-20T23:53:49.118Z,60.81
2022-11-20T23:56:16.452Z,60.54
2022-11-20T23:58:44.024Z,60.52
